createdAt,value
2023-02-22T00:02:10.731Z,67.32
2023-02-22T00:07:12.422Z,67.95
2023-02-22T00:12:14.191Z,62.40
2023-02-22T00:17:16.202Z,64.90
2023-02-22T00:22:19.535Z,63.65
2023-02-22T00:27:21.131Z,66.22
2023-02-22T00:32:23.402Z,61.22
2023-02-22T00:37:24.884Z,66.45
2023-02-22T00:42:26.381Z,58.97
2023-02-22T00:47:28.329Z,63.45
2023-02-22T00:52:29.906Z,65.03
2023-02-22T00:57:31.721Z,63.17
2023-02-22T01:02:33.203Z,60.33
2023-02-22T01:07:35.165Z,58.28
2023-02-22T01:12:37.037Z,62.40
2023-02-22T01:17:40.121Z,71.18
2023-02-22T01:22:44.404Z,72.45
2023-02-22T01:27:46.248Z,78.35
2023-02-22T01:32:47.922Z,78.28
2023-02-22T01:37:49.590Z,70.32
2023-02-22T01:42:53.500Z,68.05
2023-02-22T01:48:11.096Z,64.18
2023-02-22T01:53:18.044Z,68.32
2023-02-22T01:58:21.820Z,70.17
2023-02-22T02:03:29.313Z,79.38
2023-02-22T02:08:49.605Z,78.30
2023-02-22T02:13:56.898Z,75.25
2023-02-22T02:18:58.379Z,72.07
2023-02-22T02:24:39.618Z,67.15
2023-02-22T02:29:46.696Z,64.65
2023-02-22T02:35:00.260Z,69.47
2023-02-22T02:40:29.364Z,62.97
2023-02-22T02:45:39.247Z,55.72
2023-02-22T02:50:46.836Z,50.42
2023-02-22T02:55:48.491Z,52.60
2023-02-22T03:00:55.532Z,51.40
2023-02-22T03:06:34.560Z,52.80
2023-02-22T03:12:02.152Z,51.83
2023-02-22T03:17:26.363Z,47.97
2023-02-22T03:22:36.154Z,46.97
2023-02-22T03:27:43.597Z,47.08
2023-02-22T03:32:51.485Z,49.22
2023-02-22T03:43:09.137Z,51.25
2023-02-22T03:48:23.751Z,51.03
2023-02-22T03:53:25.514Z,54.45
2023-02-22T03:58:31.581Z,51.95
2023-02-22T04:03:33.063Z,52.00
2023-02-22T04:08:35.137Z,52.95
2023-02-22T04:13:36.654Z,54.75
2023-02-22T04:18:38.167Z,56.53
2023-02-22T04:23:39.695Z,52.53
2023-02-22T04:28:41.230Z,53.22
2023-02-22T04:33:42.799Z,57.80
2023-02-22T04:38:44.457Z,52.70
2023-02-22T04:43:46.261Z,50.92
2023-02-22T04:48:47.757Z,55.35
2023-02-22T04:53:49.387Z,54.08
2023-02-22T04:58:50.865Z,57.55
2023-02-22T05:03:52.389Z,56.58
2023-02-22T05:08:53.980Z,56.13
2023-02-22T05:13:55.521Z,56.17
2023-02-22T05:18:57.050Z,55.42
2023-02-22T05:23:58.592Z,52.50
2023-02-22T05:29:00.097Z,51.60
2023-02-22T05:34:01.643Z,50.67
2023-02-22T05:39:03.224Z,46.60
2023-02-22T05:44:04.941Z,49.50
2023-02-22T05:49:06.565Z,42.83
2023-02-22T05:54:08.295Z,46.63
2023-02-22T05:59:09.805Z,46.85
2023-02-22T06:04:11.332Z,46.40
2023-02-22T06:09:12.805Z,47.83
2023-02-22T06:14:14.373Z,45.70
2023-02-22T06:19:15.934Z,45.15
2023-02-22T06:24:17.967Z,47.22
2023-02-22T06:29:19.502Z,52.30
2023-02-22T06:34:24.332Z,47.30
2023-02-22T06:39:25.981Z,52.65
2023-02-22T06:44:27.497Z,49.65
2023-02-22T06:49:28.975Z,56.58
2023-02-22T06:54:30.478Z,60.10
2023-02-22T06:59:32.031Z,62.42
2023-02-22T07:04:34.218Z,67.35
2023-02-22T07:09:36.603Z,65.50
2023-02-22T07:14:38.146Z,61.13
2023-02-22T07:19:39.690Z,64.07
2023-02-22T07:24:41.219Z,67.00
2023-02-22T07:29:43.796Z,68.43
2023-02-22T07:34:45.323Z,68.95
2023-02-22T07:39:46.891Z,68.75
2023-02-22T07:44:48.386Z,66.45
2023-02-22T07:49:50.327Z,69.28
2023-02-22T07:54:51.836Z,66.53
2023-02-22T07:59:53.669Z,70.88
2023-02-22T08:04:55.225Z,71.22
2023-02-22T08:09:56.731Z,72.97
2023-02-22T08:14:58.287Z,73.05
2023-02-22T08:19:59.856Z,73.80
2023-02-22T08:25:01.408Z,76.57
2023-02-22T08:30:02.968Z,80.53
2023-02-22T08:35:04.970Z,74.03
2023-02-22T08:40:06.954Z,79.03
2023-02-22T08:45:08.914Z,75.15
2023-02-22T08:50:20.669Z,82.82
2023-02-22T08:55:24.460Z,78.57
2023-02-22T09:00:26.123Z,80.53
2023-02-22T09:05:29.787Z,74.72
2023-02-22T09:10:34.668Z,74.03
2023-02-22T09:15:36.292Z,75.13
2023-02-22T09:20:37.968Z,77.03
2023-02-22T09:25:40.898Z,77.07
2023-02-22T09:30:43.120Z,75.30
2023-02-22T09:35:46.592Z,72.90
2023-02-22T09:41:07.496Z,76.80
2023-02-22T09:46:28.206Z,72.80
2023-02-22T09:51:45.212Z,76.13
2023-02-22T09:56:50.134Z,70.95
2023-02-22T10:02:00.474Z,68.30
2023-02-22T10:07:26.143Z,76.07
2023-02-22T10:12:44.181Z,70.20
2023-02-22T10:18:20.826Z,65.95
2023-02-22T10:23:34.436Z,64.80
2023-02-22T10:28:43.877Z,74.18
2023-02-22T10:33:48.636Z,65.10
2023-02-22T10:38:58.872Z,62.47
2023-02-22T10:44:02.051Z,61.25
2023-02-22T10:49:08.869Z,63.30
2023-02-22T10:54:13.418Z,65.73
2023-02-22T10:59:32.944Z,68.47
2023-02-22T11:04:52.522Z,76.20
2023-02-22T11:09:59.667Z,75.50
2023-02-22T11:15:23.461Z,71.25
2023-02-22T11:20:34.770Z,72.95
2023-02-22T11:25:39.685Z,65.78
2023-02-22T11:30:44.486Z,63.72
2023-02-22T11:35:52.655Z,68.10
2023-02-22T11:41:15.250Z,67.28
2023-02-22T11:46:22.715Z,71.05
2023-02-22T11:51:36.651Z,69.63
2023-02-22T11:56:45.070Z,69.28
2023-02-22T12:01:54.134Z,66.13
2023-02-22T12:07:37.165Z,64.00
2023-02-22T12:12:50.602Z,71.25
2023-02-22T12:18:00.083Z,64.20
2023-02-22T12:23:40.682Z,64.45
2023-02-22T12:28:47.741Z,61.40
2023-02-22T12:34:02.359Z,55.47
2023-02-22T12:39:40.963Z,56.15
2023-02-22T12:44:52.212Z,56.30
2023-02-22T12:50:05.608Z,56.50
2023-02-22T12:55:41.910Z,57.28
2023-02-22T13:00:51.062Z,52.42
2023-02-22T13:06:20.776Z,58.78
2023-02-22T13:11:25.317Z,57.03
2023-02-22T13:16:35.464Z,60.47
2023-02-22T13:21:49.572Z,66.53
2023-02-22T13:26:55.664Z,57.42
2023-02-22T13:32:21.769Z,60.53
2023-02-22T13:37:54.492Z,56.72
2023-02-22T13:43:17.876Z,58.30
2023-02-22T13:48:54.654Z,55.00
2023-02-22T13:54:27.495Z,60.17
2023-02-22T13:59:36.540Z,57.35
2023-02-22T14:04:40.631Z,58.67
2023-02-22T14:09:47.192Z,55.28
2023-02-22T14:15:28.118Z,53.28
2023-02-22T14:20:37.347Z,52.13
2023-02-22T14:25:41.544Z,51.55
2023-02-22T14:30:43.182Z,49.42
2023-02-22T14:35:50.221Z,49.42
2023-02-22T14:40:53.682Z,49.47
2023-02-22T14:45:58.614Z,50.55
2023-02-22T14:51:20.180Z,49.83
2023-02-22T14:56:23.180Z,47.17
2023-02-22T15:07:01.007Z,44.50
2023-02-22T15:12:02.467Z,45.53
2023-02-22T15:17:08.936Z,51.75
2023-02-22T15:22:24.049Z,44.65
2023-02-22T15:27:26.214Z,47.05
2023-02-22T15:32:32.194Z,43.83
2023-02-22T15:37:33.762Z,45.35
2023-02-22T15:42:58.417Z,41.85
2023-02-22T15:48:00.168Z,44.75
2023-02-22T15:53:03.177Z,42.03
2023-02-22T15:58:10.814Z,42.60
2023-02-22T16:03:19.904Z,43.40
2023-02-22T16:08:31.154Z,43.90
2023-02-22T16:13:35.111Z,40.60
2023-02-22T16:18:41.372Z,43.30
2023-02-22T16:23:49.368Z,44.15
2023-02-22T16:29:00.168Z,45.75
2023-02-22T16:34:03.454Z,48.40
2023-02-22T16:39:07.196Z,45.55
2023-02-22T16:44:08.968Z,49.17
2023-02-22T16:49:12.094Z,45.38
2023-02-22T16:54:18.988Z,48.30
2023-02-22T16:59:20.594Z,44.00
2023-02-22T17:04:28.647Z,45.60
2023-02-22T17:09:30.302Z,46.08
2023-02-22T17:14:34.944Z,50.05
2023-02-22T17:19:37.698Z,43.28
2023-02-22T17:24:39.317Z,43.95
2023-02-22T17:29:45.131Z,47.50
2023-02-22T17:34:46.668Z,46.80
2023-02-22T17:39:48.248Z,48.42
2023-02-22T17:44:49.774Z,51.17
2023-02-22T17:49:52.924Z,50.38
2023-02-22T17:54:54.531Z,61.30
2023-02-22T17:59:56.759Z,58.90
2023-02-22T18:04:58.277Z,62.58
2023-02-22T18:10:00.335Z,63.78
2023-02-22T18:15:01.834Z,68.95
2023-02-22T18:20:14.045Z,73.78
2023-02-22T18:25:15.833Z,74.75
2023-02-22T18:30:18.316Z,77.57
2023-02-22T18:35:19.911Z,80.25
2023-02-22T18:40:21.443Z,78.22
2023-02-22T18:45:22.975Z,87.55
2023-02-22T18:50:24.437Z,86.55
2023-02-22T18:55:25.928Z,84.97
2023-02-22T19:00:28.697Z,78.25
2023-02-22T19:05:32.648Z,68.00
2023-02-22T19:10:34.232Z,70.55
2023-02-22T19:15:35.779Z,67.03
2023-02-22T19:20:37.252Z,67.85
2023-02-22T19:25:41.067Z,69.82
2023-02-22T19:30:42.839Z,70.07
2023-02-22T19:35:48.115Z,68.70
2023-02-22T19:40:50.004Z,64.88
2023-02-22T19:45:51.559Z,71.00
2023-02-22T19:50:57.761Z,69.82
2023-02-22T19:55:59.343Z,68.65
2023-02-22T20:01:00.886Z,71.63
2023-02-22T20:06:02.463Z,72.70
2023-02-22T20:11:05.780Z,78.20
2023-02-22T20:16:09.953Z,74.70
2023-02-22T20:21:18.477Z,71.53
2023-02-22T20:26:22.484Z,77.05
2023-02-22T20:31:24.716Z,73.38
2023-02-22T20:36:28.317Z,74.50
2023-02-22T20:41:32.854Z,80.82
2023-02-22T20:46:37.562Z,82.10
2023-02-22T20:51:40.284Z,83.57
2023-02-22T20:56:45.213Z,86.75
2023-02-22T21:01:52.917Z,91.85
2023-02-22T21:11:55.840Z,89.85
2023-02-22T21:16:57.377Z,99.82
2023-02-22T21:22:01.423Z,97.45
2023-02-22T21:27:03.467Z,97.03
2023-02-22T21:32:05.280Z,101.50
2023-02-22T21:37:08.294Z,100.25
2023-02-22T21:42:09.846Z,100.45
2023-02-22T21:47:11.306Z,95.30
2023-02-22T21:52:13.027Z,96.03
2023-02-22T21:57:14.961Z,100.05
2023-02-22T22:02:16.469Z,97.13
2023-02-22T22:07:18.838Z,104.00
2023-02-22T22:12:26.010Z,110.40
2023-02-22T22:17:29.808Z,112.40
2023-02-22T22:22:31.423Z,107.53
2023-02-22T22:27:32.908Z,106.25
2023-02-22T22:32:34.987Z,106.05
2023-02-22T22:37:36.561Z,110.95
2023-02-22T22:42:38.077Z,109.07
2023-02-22T22:47:45.866Z,109.68
2023-02-22T22:57:48.809Z,108.38
2023-02-22T23:02:50.868Z,107.60
2023-02-22T23:07:53.060Z,98.22
2023-02-22T23:12:56.441Z,106.07
2023-02-22T23:17:59.259Z,100.03
2023-02-22T23:23:02.755Z,99.20
2023-02-22T23:28:04.242Z,91.93
2023-02-22T23:33:05.742Z,99.55
2023-02-22T23:38:08.339Z,97.40
2023-02-22T23:43:12.028Z,90.53
2023-02-22T23:48:13.557Z,95.85
2023-02-22T23:53:15.325Z,96.80
2023-02-22T23:58:16.854Z,96.38
